Boca, California
Current Conditions -  °F | °C
As of 12:45 PM on Monday 24 Nov 2014 (Local Time) from KTRK Reporting Station
Broken Clouds Broken Clouds  
Wind Chill: 45°   Ceiling: 20000
Heat Index: 45°   Visibility: 10mi
Dew Point: 19°   Wind: 0mph
Humidity: 37%   Direction: NA
Pressure: 30.43"   Gusts: NA
Location:  39.3569°N, 120.175°W
Report Text: KTRK 242045Z 00000KT 10SM BKN200 07/M07 A3043 RMK NOSPECI
Loading
Personal Weather Stations






























Interactive Weather Map New forecast layout! Learn more

10-Day Weather Forecast

Advertisements
Track Severe Weather on mobile